Time,TemperatureF,DewpointF,PressureIn,WindDirection,WindDirectionDegrees,WindSpeedMPH,WindSpeedGustMPH,Humidity,HourlyPrecipIn,Conditions,Clouds,dailyrainin,SoftwareType,DateUTC
2013-10-16 00:12:00,33.0,22.0,-100.00,SW,230,7.0,9.0,65,-99.99,,,-99.99,,2013-10-16 06:12:00,
2013-10-16 00:52:00,33.0,23.0,-100.00,SW,235,6.0,9.0,66,-99.99,,,-99.99,,2013-10-16 06:52:00,
2013-10-16 01:11:00,33.0,23.0,-100.00,SW,235,5.0,7.0,67,-99.99,,,-99.99,,2013-10-16 07:11:00,
2013-10-16 01:53:00,34.0,25.0,-100.00,SW,220,3.0,7.0,68,-99.99,,,-99.99,,2013-10-16 07:53:00,
2013-10-16 02:11:00,33.0,24.0,-100.00,SSW,210,2.0,4.0,68,-99.99,,,-99.99,,2013-10-16 08:11:00,
2013-10-16 02:52:00,32.0,24.0,-100.00,West,260,3.0,4.0,72,-99.99,,,-99.99,,2013-10-16 08:52:00,
2013-10-16 03:11:00,32.0,24.0,-100.00,WSW,240,4.0,6.0,72,-99.99,,,-99.99,,2013-10-16 09:11:00,
2013-10-16 03:54:00,32.0,24.0,-100.00,WSW,245,4.0,6.0,73,-99.99,,,-99.99,,2013-10-16 09:54:00,
2013-10-16 04:12:00,32.0,24.0,-100.00,WSW,240,4.0,7.0,73,-99.99,,,-99.99,,2013-10-16 10:12:00,
2013-10-16 04:53:00,31.0,24.0,-100.00,SW,230,7.0,9.0,75,-99.99,,,-99.99,,2013-10-16 10:53:00,
2013-10-16 05:12:00,31.0,25.0,-100.00,SW,235,6.0,9.0,75,-99.99,,,-99.99,,2013-10-16 11:12:00,
2013-10-16 05:52:00,31.0,24.0,-100.00,WNW,300,1.0,3.0,74,-99.99,,,-99.99,,2013-10-16 11:52:00,
2013-10-16 06:12:00,31.0,24.0,-100.00,WNW,290,3.0,5.0,74,-99.99,,,-99.99,,2013-10-16 12:12:00,
2013-10-16 06:52:00,32.0,24.0,-100.00,West,260,10.0,11.0,70,-99.99,,,-99.99,,2013-10-16 12:52:00,
2013-10-16 07:11:00,32.0,24.0,-100.00,West,260,9.0,11.0,71,-99.99,,,-99.99,,2013-10-16 13:11:00,
2013-10-16 07:52:00,33.0,24.0,-100.00,West,265,9.0,12.0,72,-99.99,,,-99.99,,2013-10-16 13:52:00,
2013-10-16 08:11:00,33.0,24.0,-100.00,West,270,10.0,12.0,71,-99.99,,,-99.99,,2013-10-16 14:11:00,
2013-10-16 08:52:00,37.0,26.0,-100.00,West,260,7.0,11.0,63,-99.99,,,-99.99,,2013-10-16 14:52:00,
2013-10-16 09:11:00,38.0,26.0,-100.00,West,260,7.0,11.0,60,-99.99,,,-99.99,,2013-10-16 15:11:00,
2013-10-16 09:53:00,39.0,24.0,-100.00,WSW,255,9.0,12.0,54,-99.99,,,-99.99,,2013-10-16 15:53:00,
2013-10-16 10:13:00,39.0,25.0,-100.00,West,265,7.0,12.0,56,-99.99,,,-99.99,,2013-10-16 16:13:00,
2013-10-16 10:53:00,45.0,25.0,-100.00,West,270,9.0,12.0,44,-99.99,,,-99.99,,2013-10-16 16:53:00,
2013-10-16 11:12:00,45.0,25.0,-100.00,WSW,255,9.0,12.0,46,-99.99,,,-99.99,,2013-10-16 17:12:00,
2013-10-16 11:52:00,50.0,27.0,-100.00,SW,235,9.0,12.0,40,-99.99,,,-99.99,,2013-10-16 17:52:00,
2013-10-16 12:11:00,53.0,27.0,-100.00,SW,235,8.0,12.0,37,-99.99,,,-99.99,,2013-10-16 18:11:00,
2013-10-16 13:11:00,56.0,25.0,-100.00,West,260,5.0,9.0,30,-99.99,,,-99.99,,2013-10-16 19:11:00,
2013-10-16 15:11:00,58.0,22.0,-100.00,NW,305,12.0,17.0,24,-99.99,,,-99.99,,2013-10-16 21:11:00,
2013-10-16 15:54:00,57.0,23.0,-100.00,WNW,285,14.0,17.0,26,-99.99,,,-99.99,,2013-10-16 21:54:00,
2013-10-16 16:14:00,56.0,22.0,-100.00,WNW,285,13.0,17.0,26,-99.99,,,-99.99,,2013-10-16 22:14:00,
2013-10-16 16:54:00,54.0,23.0,-100.00,WNW,290,10.0,16.0,29,-99.99,,,-99.99,,2013-10-16 22:54:00,
2013-10-16 17:12:00,54.0,23.0,-100.00,WNW,285,11.0,14.0,29,-99.99,,,-99.99,,2013-10-16 23:12:00,
2013-10-16 17:53:00,51.0,24.0,-100.00,NW,305,9.0,11.0,34,-99.99,,,-99.99,,2013-10-16 23:53:00,
2013-10-16 18:11:00,51.0,25.0,-100.00,WNW,300,7.0,11.0,35,-99.99,,,-99.99,,2013-10-17 00:11:00,
2013-10-16 18:52:00,48.0,25.0,-100.00,NW,315,7.0,8.0,41,-99.99,,,-99.99,,2013-10-17 00:52:00,
2013-10-16 19:12:00,47.0,26.0,-100.00,NW,315,7.0,9.0,42,-99.99,,,-99.99,,2013-10-17 01:12:00,
2013-10-16 19:52:00,45.0,27.0,-100.00,NW,320,7.0,10.0,50,-99.99,,,-99.99,,2013-10-17 01:52:00,
2013-10-16 20:12:00,44.0,28.0,-100.00,NNW,330,7.0,9.0,53,-99.99,,,-99.99,,2013-10-17 02:12:00,
2013-10-16 21:12:00,43.0,29.0,-100.00,North,350,17.0,23.0,57,-99.99,,,-99.99,,2013-10-17 03:12:00,
2013-10-16 21:54:00,42.0,30.0,-100.00,NNW,335,14.0,21.0,62,-99.99,,,-99.99,,2013-10-17 03:54:00,
2013-10-16 22:14:00,42.0,30.0,-100.00,NNW,345,13.0,22.0,62,-99.99,,,-99.99,,2013-10-17 04:14:00,
2013-10-16 22:54:00,39.0,32.0,-100.00,NNW,345,19.0,23.0,77,-99.99,,,-99.99,,2013-10-17 04:54:00,
2013-10-16 23:13:00,38.0,32.0,-100.00,NNW,345,16.0,22.0,79,-99.99,,,-99.99,,2013-10-17 05:13:00,
2013-10-16 23:52:00,37.0,32.0,-100.00,NNW,335,13.0,17.0,81,-99.99,,,-99.99,,2013-10-17 05:52:00,